METAR Data
IDs: Format: Raw Decoded Include TAF

Data at: 0419 UTC 21 Sep 2018

METAR for:KHLX (Hillsville/Twin Cnty, VA, US)
Text:KHLX 210355Z AUTO 18005KT 10SM CLR 21/19 A3026 RMK AO2 T02070192
Temperature: 20.7°C ( 69°F)
Dewpoint: 19.2°C ( 67°F) [RH = 91%]
Pressure (altimeter):30.26 inches Hg (1024.8 mb)
Winds:from the S (180 degrees) at 6 MPH (5 knots; 2.6 m/s)
Visibility:10 or more sm (16+ km)
Ceiling:at least 12,000 feet AGL
Clouds:sky clear below 12,000 feet AGL
QC Flag:automated observation with no human augmentation